Bookmark and Share
Track history (hours):
 

Roanoke

More information available from US FCC via Universal Licensing System and Coast Guard Vessel Documentation Center.

Last reported at 2014-Apr-12 20:25 UTC. Time now 2014-Apr-17 12:43 UTC.
Position N 37°16' W 076°14'.

Length 32 m; draft 13 m.

Type: Towing. MMSI: 367314510.

NotesDate/timePositionNaut miles runAvg speedWind from/ knotsBaromVisibWave heightAir tempDewpointWater temp
2014-Apr-12 20:25N 37°16' W 076°14'6 6.4
2014-Apr-12 19:29N 37°14' W 076°21'5 1.4
2014-Apr-12 15:31N 37°14' W 076°28'9 1.0
2014-Apr-12 06:33N 37°12' W 076°17'7 7.2
2014-Apr-12 05:33N 37°04' W 076°15'8 8.4
2014-Apr-12 04:33N 36°57' W 076°20'7 5.3
2014-Apr-12 03:11N 36°50' W 076°16'0 0.0
2014-Apr-12 02:18N 36°50' W 076°16'0 0.0
2014-Apr-12 01:04N 36°50' W 076°16'0 0.0
2014-Apr-11 23:32N 36°50' W 076°16'0 0.0
2014-Apr-11 22:21N 36°50' W 076°16'0 0.0
2014-Apr-11 21:12N 36°50' W 076°16'0 0.0
2014-Apr-11 20:19N 36°50' W 076°16'0 0.0
2014-Apr-11 19:28N 36°50' W 076°16'1 1.2
2014-Apr-11 18:33N 36°50' W 076°18'2 1.9
2014-Apr-11 17:32N 36°48' W 076°18'0 0.0
2014-Apr-11 16:33N 36°48' W 076°18'0 0.0
2014-Apr-11 15:29N 36°48' W 076°18'0 0.0
2014-Apr-11 14:33N 36°48' W 076°18'0 0.0
2014-Apr-11 13:33N 36°48' W 076°18'0 0.2
2014-Apr-11 12:26N 36°48' W 076°18'0 0.3
2014-Apr-11 11:30N 36°48' W 076°18'0 0.0
2014-Apr-11 08:32N 36°48' W 076°18'0 0.0
2014-Apr-11 07:33N 36°48' W 076°18'0 0.0
2014-Apr-11 06:04N 36°48' W 076°18'0 0.0
2014-Apr-11 05:28N 36°48' W 076°18'0 0.0
2014-Apr-11 04:29N 36°48' W 076°18'0 0.0
2014-Apr-11 03:29N 36°48' W 076°18'0 0.0
2014-Apr-11 02:30N 36°48' W 076°18'0 0.0
2014-Apr-11 01:31N 36°48' W 076°18'0 0.1
2014-Apr-11 00:22N 36°48' W 076°18'5 6.5
2014-Apr-10 23:33N 36°53' W 076°20'8 8.2
2014-Apr-10 22:33N 37°01' W 076°17'8 8.0
2014-Apr-10 21:33N 37°08' W 076°14'8 8.4
2014-Apr-10 20:33N 37°16' W 076°11'  
2014-Apr-07 12:33N 37°15' W 076°15'6 5.8
2014-Apr-07 11:32N 37°15' W 076°22'3 0.8
2014-Apr-07 07:19N 37°14' W 076°26'0 0.0
2014-Apr-07 06:32N 37°14' W 076°26'0 0.0
2014-Apr-07 04:33N 37°14' W 076°26'0 0.0
2014-Apr-07 03:20N 37°14' W 076°26'0 0.0
2014-Apr-07 02:26N 37°14' W 076°26'1 0.9
2014-Apr-07 01:33N 37°14' W 076°27'  
2014-Apr-04 02:28N 37°14' W 076°26'0 0.0
2014-Apr-04 01:28N 37°14' W 076°26'0 0.0
2014-Apr-03 23:09N 37°14' W 076°26'2 0.2
2014-Apr-03 15:19N 37°14' W 076°28'0 0.0
2014-Apr-03 14:32N 37°14' W 076°28'0 0.0
2014-Apr-03 10:11N 37°14' W 076°28'0 0.0
2014-Apr-03 09:23N 37°14' W 076°28'0 0.1
2014-Apr-03 06:11N 37°14' W 076°29'9 8.1
2014-Apr-03 05:04N 37°13' W 076°17'7 8.1
2014-Apr-03 04:14N 37°18' W 076°12'  

Dump ship's entire track history

sailing weather and tide predictions

Roanoke — WDD9656 — position and weather